sensor_id;sensor_type;location;lat;lon;timestamp;P1;durP1;ratioP1;P2;durP2;ratioP2
14698;SDS011;7439;50.804;4.602;2022-07-15T00:00:02;5.50;;;3.30;;
14698;SDS011;7439;50.804;4.602;2022-07-15T00:02:30;5.90;;;3.60;;
14698;SDS011;7439;50.804;4.602;2022-07-15T00:04:57;10.17;;;3.90;;
14698;SDS011;7439;50.804;4.602;2022-07-15T00:07:24;6.17;;;3.90;;
14698;SDS011;7439;50.804;4.602;2022-07-15T00:09:51;5.83;;;3.50;;
14698;SDS011;7439;50.804;4.602;2022-07-15T00:12:37;7.00;;;4.23;;
14698;SDS011;7439;50.804;4.602;2022-07-15T00:15:04;5.53;;;4.00;;
14698;SDS011;7439;50.804;4.602;2022-07-15T00:17:33;3.87;;;3.57;;
14698;SDS011;7439;50.804;4.602;2022-07-15T00:20:00;7.10;;;4.07;;
14698;SDS011;7439;50.804;4.602;2022-07-15T00:22:27;8.80;;;4.23;;
14698;SDS011;7439;50.804;4.602;2022-07-15T00:24:54;7.50;;;4.00;;
14698;SDS011;7439;50.804;4.602;2022-07-15T00:27:21;5.90;;;4.03;;
14698;SDS011;7439;50.804;4.602;2022-07-15T00:29:49;4.07;;;3.53;;
14698;SDS011;7439;50.804;4.602;2022-07-15T00:32:16;7.70;;;4.93;;
14698;SDS011;7439;50.804;4.602;2022-07-15T00:34:44;9.10;;;6.60;;
14698;SDS011;7439;50.804;4.602;2022-07-15T00:37:11;9.77;;;4.43;;
14698;SDS011;7439;50.804;4.602;2022-07-15T00:39:38;7.47;;;3.60;;
14698;SDS011;7439;50.804;4.602;2022-07-15T00:42:05;6.73;;;4.50;;
14698;SDS011;7439;50.804;4.602;2022-07-15T00:44:31;14.63;;;11.10;;
14698;SDS011;7439;50.804;4.602;2022-07-15T00:47:00;6.33;;;3.90;;
14698;SDS011;7439;50.804;4.602;2022-07-15T00:49:28;6.37;;;4.20;;
14698;SDS011;7439;50.804;4.602;2022-07-15T00:51:55;8.60;;;4.00;;
14698;SDS011;7439;50.804;4.602;2022-07-15T00:54:24;4.63;;;3.90;;
14698;SDS011;7439;50.804;4.602;2022-07-15T00:56:53;6.87;;;4.20;;
14698;SDS011;7439;50.804;4.602;2022-07-15T00:59:22;8.73;;;3.83;;
14698;SDS011;7439;50.804;4.602;2022-07-15T01:01:51;6.60;;;3.73;;
14698;SDS011;7439;50.804;4.602;2022-07-15T01:04:20;7.20;;;3.73;;
14698;SDS011;7439;50.804;4.602;2022-07-15T01:06:48;4.23;;;3.80;;
14698;SDS011;7439;50.804;4.602;2022-07-15T01:09:15;7.50;;;3.67;;
14698;SDS011;7439;50.804;4.602;2022-07-15T01:11:44;9.63;;;3.83;;
14698;SDS011;7439;50.804;4.602;2022-07-15T01:14:12;3.73;;;3.43;;
14698;SDS011;7439;50.804;4.602;2022-07-15T01:16:39;12.03;;;4.70;;
14698;SDS011;7439;50.804;4.602;2022-07-15T01:19:06;15.93;;;4.63;;
14698;SDS011;7439;50.804;4.602;2022-07-15T01:21:34;6.83;;;3.90;;
14698;SDS011;7439;50.804;4.602;2022-07-15T01:24:01;6.53;;;3.83;;
14698;SDS011;7439;50.804;4.602;2022-07-15T01:26:29;8.07;;;4.10;;
14698;SDS011;7439;50.804;4.602;2022-07-15T01:28:56;8.70;;;4.17;;
14698;SDS011;7439;50.804;4.602;2022-07-15T01:31:22;6.57;;;3.60;;
14698;SDS011;7439;50.804;4.602;2022-07-15T01:33:50;4.80;;;4.13;;
14698;SDS011;7439;50.804;4.602;2022-07-15T01:36:19;7.17;;;3.70;;
14698;SDS011;7439;50.804;4.602;2022-07-15T01:38:47;6.40;;;4.10;;
14698;SDS011;7439;50.804;4.602;2022-07-15T01:41:14;6.93;;;4.10;;
14698;SDS011;7439;50.804;4.602;2022-07-15T01:43:41;8.17;;;4.30;;
14698;SDS011;7439;50.804;4.602;2022-07-15T01:46:08;6.83;;;4.37;;
14698;SDS011;7439;50.804;4.602;2022-07-15T01:48:35;4.33;;;4.00;;
14698;SDS011;7439;50.804;4.602;2022-07-15T01:51:20;6.80;;;4.87;;
14698;SDS011;7439;50.804;4.602;2022-07-15T01:53:48;6.87;;;4.03;;
14698;SDS011;7439;50.804;4.602;2022-07-15T01:56:15;4.47;;;3.93;;
14698;SDS011;7439;50.804;4.602;2022-07-15T01:58:43;8.07;;;4.47;;
14698;SDS011;7439;50.804;4.602;2022-07-15T02:01:10;8.23;;;4.33;;
14698;SDS011;7439;50.804;4.602;2022-07-15T02:03:36;4.73;;;4.00;;
14698;SDS011;7439;50.804;4.602;2022-07-15T02:06:05;5.80;;;4.37;;
14698;SDS011;7439;50.804;4.602;2022-07-15T02:08:33;6.03;;;4.53;;
14698;SDS011;7439;50.804;4.602;2022-07-15T02:11:01;5.87;;;4.27;;
14698;SDS011;7439;50.804;4.602;2022-07-15T02:13:28;7.03;;;4.43;;
14698;SDS011;7439;50.804;4.602;2022-07-15T02:15:55;5.30;;;4.20;;
14698;SDS011;7439;50.804;4.602;2022-07-15T02:18:22;5.67;;;3.97;;
14698;SDS011;7439;50.804;4.602;2022-07-15T02:20:49;7.77;;;4.50;;
14698;SDS011;7439;50.804;4.602;2022-07-15T02:23:16;4.80;;;4.27;;
14698;SDS011;7439;50.804;4.602;2022-07-15T02:25:43;6.27;;;4.30;;
14698;SDS011;7439;50.804;4.602;2022-07-15T02:28:12;6.67;;;4.40;;
14698;SDS011;7439;50.804;4.602;2022-07-15T02:30:39;9.33;;;5.40;;
14698;SDS011;7439;50.804;4.602;2022-07-15T02:33:08;6.77;;;4.80;;
14698;SDS011;7439;50.804;4.602;2022-07-15T02:35:36;4.67;;;4.27;;
14698;SDS011;7439;50.804;4.602;2022-07-15T02:38:04;7.33;;;4.70;;
14698;SDS011;7439;50.804;4.602;2022-07-15T02:40:31;7.87;;;4.77;;
14698;SDS011;7439;50.804;4.602;2022-07-15T02:42:59;4.73;;;3.90;;
14698;SDS011;7439;50.804;4.602;2022-07-15T02:45:30;7.43;;;4.90;;
14698;SDS011;7439;50.804;4.602;2022-07-15T02:48:00;5.90;;;4.60;;
14698;SDS011;7439;50.804;4.602;2022-07-15T02:50:27;4.43;;;3.97;;
14698;SDS011;7439;50.804;4.602;2022-07-15T02:52:55;6.73;;;4.17;;
14698;SDS011;7439;50.804;4.602;2022-07-15T02:55:22;5.00;;;3.93;;
14698;SDS011;7439;50.804;4.602;2022-07-15T02:57:50;7.43;;;5.17;;
14698;SDS011;7439;50.804;4.602;2022-07-15T03:00:17;5.53;;;4.73;;
14698;SDS011;7439;50.804;4.602;2022-07-15T03:02:47;7.00;;;4.90;;
14698;SDS011;7439;50.804;4.602;2022-07-15T03:05:15;5.40;;;4.30;;
14698;SDS011;7439;50.804;4.602;2022-07-15T03:07:43;8.87;;;4.07;;
14698;SDS011;7439;50.804;4.602;2022-07-15T03:10:11;6.80;;;4.50;;
14698;SDS011;7439;50.804;4.602;2022-07-15T03:12:38;5.97;;;4.60;;
14698;SDS011;7439;50.804;4.602;2022-07-15T03:15:06;7.17;;;4.93;;
14698;SDS011;7439;50.804;4.602;2022-07-15T03:17:34;6.57;;;5.00;;
14698;SDS011;7439;50.804;4.602;2022-07-15T03:20:02;9.40;;;5.07;;
14698;SDS011;7439;50.804;4.602;2022-07-15T03:22:30;9.43;;;5.00;;
14698;SDS011;7439;50.804;4.602;2022-07-15T03:24:58;11.90;;;5.33;;
14698;SDS011;7439;50.804;4.602;2022-07-15T03:27:25;4.77;;;4.27;;
14698;SDS011;7439;50.804;4.602;2022-07-15T03:29:52;8.53;;;4.50;;
14698;SDS011;7439;50.804;4.602;2022-07-15T03:32:19;6.40;;;4.90;;
14698;SDS011;7439;50.804;4.602;2022-07-15T03:34:46;6.50;;;4.93;;
14698;SDS011;7439;50.804;4.602;2022-07-15T03:37:16;5.87;;;4.47;;
14698;SDS011;7439;50.804;4.602;2022-07-15T03:39:43;7.07;;;4.50;;
14698;SDS011;7439;50.804;4.602;2022-07-15T03:42:10;4.97;;;4.47;;
14698;SDS011;7439;50.804;4.602;2022-07-15T03:44:37;9.33;;;5.27;;
14698;SDS011;7439;50.804;4.602;2022-07-15T03:47:04;6.53;;;4.40;;
14698;SDS011;7439;50.804;4.602;2022-07-15T03:49:32;7.07;;;4.40;;
14698;SDS011;7439;50.804;4.602;2022-07-15T03:51:59;6.00;;;4.70;;
14698;SDS011;7439;50.804;4.602;2022-07-15T03:54:28;8.93;;;4.27;;
14698;SDS011;7439;50.804;4.602;2022-07-15T03:56:55;8.67;;;4.73;;
14698;SDS011;7439;50.804;4.602;2022-07-15T03:59:22;6.97;;;5.17;;
14698;SDS011;7439;50.804;4.602;2022-07-15T04:01:48;7.57;;;5.20;;
14698;SDS011;7439;50.804;4.602;2022-07-15T04:04:18;5.43;;;4.63;;
14698;SDS011;7439;50.804;4.602;2022-07-15T04:06:45;8.93;;;4.80;;
14698;SDS011;7439;50.804;4.602;2022-07-15T04:09:12;6.30;;;4.43;;
14698;SDS011;7439;50.804;4.602;2022-07-15T04:11:41;4.77;;;4.33;;
14698;SDS011;7439;50.804;4.602;2022-07-15T04:14:08;7.27;;;4.40;;
14698;SDS011;7439;50.804;4.602;2022-07-15T04:16:36;6.50;;;4.40;;
14698;SDS011;7439;50.804;4.602;2022-07-15T04:19:03;6.37;;;4.60;;
14698;SDS011;7439;50.804;4.602;2022-07-15T04:21:31;5.33;;;4.00;;
14698;SDS011;7439;50.804;4.602;2022-07-15T04:23:58;6.13;;;4.23;;
14698;SDS011;7439;50.804;4.602;2022-07-15T04:26:25;5.93;;;5.17;;
14698;SDS011;7439;50.804;4.602;2022-07-15T04:28:54;6.00;;;4.60;;
14698;SDS011;7439;50.804;4.602;2022-07-15T04:31:21;7.40;;;4.70;;
14698;SDS011;7439;50.804;4.602;2022-07-15T04:33:48;7.17;;;5.03;;
14698;SDS011;7439;50.804;4.602;2022-07-15T04:36:15;7.17;;;3.77;;
14698;SDS011;7439;50.804;4.602;2022-07-15T04:38:42;6.67;;;4.43;;
14698;SDS011;7439;50.804;4.602;2022-07-15T04:41:10;5.80;;;5.20;;
14698;SDS011;7439;50.804;4.602;2022-07-15T04:43:37;4.70;;;4.30;;
14698;SDS011;7439;50.804;4.602;2022-07-15T04:46:05;4.97;;;4.40;;
14698;SDS011;7439;50.804;4.602;2022-07-15T04:48:32;8.43;;;4.80;;
14698;SDS011;7439;50.804;4.602;2022-07-15T04:51:17;4.97;;;4.30;;
14698;SDS011;7439;50.804;4.602;2022-07-15T04:53:44;6.83;;;4.83;;
14698;SDS011;7439;50.804;4.602;2022-07-15T04:56:11;6.33;;;4.53;;
14698;SDS011;7439;50.804;4.602;2022-07-15T04:58:38;7.10;;;4.40;;
14698;SDS011;7439;50.804;4.602;2022-07-15T05:01:07;7.37;;;4.77;;
14698;SDS011;7439;50.804;4.602;2022-07-15T05:03:34;7.40;;;4.50;;
14698;SDS011;7439;50.804;4.602;2022-07-15T05:06:01;8.60;;;5.27;;
14698;SDS011;7439;50.804;4.602;2022-07-15T05:08:28;9.10;;;5.37;;
14698;SDS011;7439;50.804;4.602;2022-07-15T05:10:55;5.63;;;4.43;;
14698;SDS011;7439;50.804;4.602;2022-07-15T05:13:23;6.40;;;4.73;;
14698;SDS011;7439;50.804;4.602;2022-07-15T05:15:50;6.07;;;4.70;;
14698;SDS011;7439;50.804;4.602;2022-07-15T05:18:18;6.30;;;4.97;;
14698;SDS011;7439;50.804;4.602;2022-07-15T05:20:45;7.33;;;4.73;;
14698;SDS011;7439;50.804;4.602;2022-07-15T05:23:12;6.50;;;5.07;;
14698;SDS011;7439;50.804;4.602;2022-07-15T05:25:42;8.80;;;5.00;;
14698;SDS011;7439;50.804;4.602;2022-07-15T05:28:09;7.20;;;4.93;;
14698;SDS011;7439;50.804;4.602;2022-07-15T05:30:36;10.87;;;6.07;;
14698;SDS011;7439;50.804;4.602;2022-07-15T05:33:03;8.90;;;4.90;;
14698;SDS011;7439;50.804;4.602;2022-07-15T05:35:32;9.47;;;5.73;;
14698;SDS011;7439;50.804;4.602;2022-07-15T05:37:59;7.50;;;5.70;;
14698;SDS011;7439;50.804;4.602;2022-07-15T05:40:26;11.33;;;6.23;;
14698;SDS011;7439;50.804;4.602;2022-07-15T05:42:54;7.50;;;5.90;;
14698;SDS011;7439;50.804;4.602;2022-07-15T05:45:22;7.47;;;5.50;;
14698;SDS011;7439;50.804;4.602;2022-07-15T05:47:50;8.77;;;5.00;;
14698;SDS011;7439;50.804;4.602;2022-07-15T05:50:18;6.53;;;4.87;;
14698;SDS011;7439;50.804;4.602;2022-07-15T05:52:47;6.80;;;5.13;;
14698;SDS011;7439;50.804;4.602;2022-07-15T05:55:14;7.20;;;6.10;;
14698;SDS011;7439;50.804;4.602;2022-07-15T05:57:41;7.00;;;5.77;;
14698;SDS011;7439;50.804;4.602;2022-07-15T06:00:08;7.63;;;4.93;;
14698;SDS011;7439;50.804;4.602;2022-07-15T06:02:37;8.50;;;4.90;;
14698;SDS011;7439;50.804;4.602;2022-07-15T06:05:10;6.33;;;4.80;;
14698;SDS011;7439;50.804;4.602;2022-07-15T06:07:38;11.97;;;5.20;;
14698;SDS011;7439;50.804;4.602;2022-07-15T06:10:07;5.17;;;4.67;;
14698;SDS011;7439;50.804;4.602;2022-07-15T06:12:34;6.93;;;5.10;;
14698;SDS011;7439;50.804;4.602;2022-07-15T06:15:02;4.37;;;3.97;;
14698;SDS011;7439;50.804;4.602;2022-07-15T06:17:29;8.03;;;4.27;;
14698;SDS011;7439;50.804;4.602;2022-07-15T06:19:56;6.07;;;4.13;;
14698;SDS011;7439;50.804;4.602;2022-07-15T06:22:23;7.80;;;4.73;;
14698;SDS011;7439;50.804;4.602;2022-07-15T06:24:53;5.03;;;4.53;;
14698;SDS011;7439;50.804;4.602;2022-07-15T06:27:22;6.63;;;4.30;;
14698;SDS011;7439;50.804;4.602;2022-07-15T06:29:49;8.50;;;4.63;;
14698;SDS011;7439;50.804;4.602;2022-07-15T06:32:16;6.03;;;4.63;;
14698;SDS011;7439;50.804;4.602;2022-07-15T06:34:44;8.07;;;4.30;;
14698;SDS011;7439;50.804;4.602;2022-07-15T06:37:11;4.67;;;3.37;;
14698;SDS011;7439;50.804;4.602;2022-07-15T06:39:38;7.57;;;3.53;;
14698;SDS011;7439;50.804;4.602;2022-07-15T06:42:05;9.50;;;3.90;;
14698;SDS011;7439;50.804;4.602;2022-07-15T06:44:34;5.97;;;2.80;;
14698;SDS011;7439;50.804;4.602;2022-07-15T06:47:01;8.17;;;2.67;;
14698;SDS011;7439;50.804;4.602;2022-07-15T06:49:29;4.80;;;2.37;;
14698;SDS011;7439;50.804;4.602;2022-07-15T06:51:56;3.27;;;1.83;;
14698;SDS011;7439;50.804;4.602;2022-07-15T06:54:23;8.80;;;2.87;;
14698;SDS011;7439;50.804;4.602;2022-07-15T06:56:51;7.67;;;2.23;;
14698;SDS011;7439;50.804;4.602;2022-07-15T06:59:18;3.13;;;1.77;;
14698;SDS011;7439;50.804;4.602;2022-07-15T07:01:47;5.93;;;2.53;;
14698;SDS011;7439;50.804;4.602;2022-07-15T07:04:14;4.40;;;2.03;;
14698;SDS011;7439;50.804;4.602;2022-07-15T07:06:41;9.63;;;2.60;;
14698;SDS011;7439;50.804;4.602;2022-07-15T07:09:08;6.70;;;2.50;;
14698;SDS011;7439;50.804;4.602;2022-07-15T07:11:35;5.03;;;2.40;;
14698;SDS011;7439;50.804;4.602;2022-07-15T07:14:03;5.97;;;2.13;;
14698;SDS011;7439;50.804;4.602;2022-07-15T07:16:30;4.60;;;2.20;;
14698;SDS011;7439;50.804;4.602;2022-07-15T07:18:58;7.30;;;2.03;;
14698;SDS011;7439;50.804;4.602;2022-07-15T07:21:25;3.97;;;1.83;;
14698;SDS011;7439;50.804;4.602;2022-07-15T07:23:53;7.70;;;2.03;;
14698;SDS011;7439;50.804;4.602;2022-07-15T07:26:20;2.90;;;1.70;;
14698;SDS011;7439;50.804;4.602;2022-07-15T07:28:47;5.77;;;2.07;;
14698;SDS011;7439;50.804;4.602;2022-07-15T07:31:14;3.57;;;1.70;;
14698;SDS011;7439;50.804;4.602;2022-07-15T07:33:42;3.87;;;1.60;;
14698;SDS011;7439;50.804;4.602;2022-07-15T07:36:10;5.23;;;2.13;;
14698;SDS011;7439;50.804;4.602;2022-07-15T07:38:37;3.70;;;1.40;;
14698;SDS011;7439;50.804;4.602;2022-07-15T07:41:04;3.30;;;1.80;;
14698;SDS011;7439;50.804;4.602;2022-07-15T07:43:32;9.43;;;1.80;;
14698;SDS011;7439;50.804;4.602;2022-07-15T07:46:00;5.47;;;1.70;;
14698;SDS011;7439;50.804;4.602;2022-07-15T07:48:27;3.13;;;1.20;;
14698;SDS011;7439;50.804;4.602;2022-07-15T07:50:55;3.33;;;1.40;;
14698;SDS011;7439;50.804;4.602;2022-07-15T07:53:23;3.73;;;1.53;;
14698;SDS011;7439;50.804;4.602;2022-07-15T07:55:51;3.07;;;1.67;;
14698;SDS011;7439;50.804;4.602;2022-07-15T07:58:18;4.30;;;1.60;;
14698;SDS011;7439;50.804;4.602;2022-07-15T08:00:46;3.10;;;1.50;;
14698;SDS011;7439;50.804;4.602;2022-07-15T08:03:13;3.63;;;1.57;;
14698;SDS011;7439;50.804;4.602;2022-07-15T08:05:41;3.03;;;1.50;;
14698;SDS011;7439;50.804;4.602;2022-07-15T08:08:09;4.43;;;2.07;;
14698;SDS011;7439;50.804;4.602;2022-07-15T08:10:39;6.07;;;1.93;;
14698;SDS011;7439;50.804;4.602;2022-07-15T08:13:07;2.53;;;1.40;;
14698;SDS011;7439;50.804;4.602;2022-07-15T08:15:34;2.33;;;1.50;;
14698;SDS011;7439;50.804;4.602;2022-07-15T08:18:01;3.67;;;1.60;;
14698;SDS011;7439;50.804;4.602;2022-07-15T08:20:29;3.40;;;1.53;;
14698;SDS011;7439;50.804;4.602;2022-07-15T08:22:57;6.33;;;1.50;;
14698;SDS011;7439;50.804;4.602;2022-07-15T08:25:25;2.00;;;1.33;;
14698;SDS011;7439;50.804;4.602;2022-07-15T08:27:54;3.83;;;1.50;;
14698;SDS011;7439;50.804;4.602;2022-07-15T08:30:21;3.47;;;1.50;;
14698;SDS011;7439;50.804;4.602;2022-07-15T08:32:49;1.57;;;1.33;;
14698;SDS011;7439;50.804;4.602;2022-07-15T08:35:16;3.37;;;1.50;;
14698;SDS011;7439;50.804;4.602;2022-07-15T08:37:43;3.07;;;1.70;;
14698;SDS011;7439;50.804;4.602;2022-07-15T08:40:11;3.33;;;1.87;;
14698;SDS011;7439;50.804;4.602;2022-07-15T08:42:39;6.97;;;1.83;;
14698;SDS011;7439;50.804;4.602;2022-07-15T08:45:10;4.37;;;1.53;;
14698;SDS011;7439;50.804;4.602;2022-07-15T08:47:39;5.03;;;1.73;;
14698;SDS011;7439;50.804;4.602;2022-07-15T08:50:08;3.07;;;1.43;;
14698;SDS011;7439;50.804;4.602;2022-07-15T08:52:37;3.33;;;1.50;;
14698;SDS011;7439;50.804;4.602;2022-07-15T08:55:05;4.07;;;1.60;;
14698;SDS011;7439;50.804;4.602;2022-07-15T08:57:34;3.90;;;1.57;;
14698;SDS011;7439;50.804;4.602;2022-07-15T09:00:01;14.00;;;2.03;;
14698;SDS011;7439;50.804;4.602;2022-07-15T09:02:33;5.63;;;1.97;;
14698;SDS011;7439;50.804;4.602;2022-07-15T09:05:18;2.17;;;1.27;;
14698;SDS011;7439;50.804;4.602;2022-07-15T09:07:53;2.80;;;1.50;;
14698;SDS011;7439;50.804;4.602;2022-07-15T09:10:22;6.47;;;1.53;;
14698;SDS011;7439;50.804;4.602;2022-07-15T09:12:51;4.63;;;1.50;;
14698;SDS011;7439;50.804;4.602;2022-07-15T09:15:29;3.83;;;1.57;;
14698;SDS011;7439;50.804;4.602;2022-07-15T09:18:09;3.97;;;1.70;;
14698;SDS011;7439;50.804;4.602;2022-07-15T09:20:37;3.80;;;1.40;;
14698;SDS011;7439;50.804;4.602;2022-07-15T09:23:05;4.77;;;1.73;;
14698;SDS011;7439;50.804;4.602;2022-07-15T09:25:33;3.13;;;1.40;;
14698;SDS011;7439;50.804;4.602;2022-07-15T09:28:01;2.50;;;1.20;;
14698;SDS011;7439;50.804;4.602;2022-07-15T09:30:30;3.30;;;1.40;;
14698;SDS011;7439;50.804;4.602;2022-07-15T09:33:18;3.63;;;1.27;;
14698;SDS011;7439;50.804;4.602;2022-07-15T09:36:03;2.23;;;1.40;;
14698;SDS011;7439;50.804;4.602;2022-07-15T09:38:37;1.17;;;1.07;;
14698;SDS011;7439;50.804;4.602;2022-07-15T09:41:11;3.63;;;1.47;;
14698;SDS011;7439;50.804;4.602;2022-07-15T09:43:46;2.90;;;1.20;;
14698;SDS011;7439;50.804;4.602;2022-07-15T09:46:16;4.53;;;1.40;;
14698;SDS011;7439;50.804;4.602;2022-07-15T09:48:46;2.50;;;1.20;;
14698;SDS011;7439;50.804;4.602;2022-07-15T09:51:15;3.27;;;1.20;;
14698;SDS011;7439;50.804;4.602;2022-07-15T09:53:43;2.17;;;1.10;;
14698;SDS011;7439;50.804;4.602;2022-07-15T09:56:12;2.73;;;1.40;;
14698;SDS011;7439;50.804;4.602;2022-07-15T09:58:42;2.53;;;1.20;;
14698;SDS011;7439;50.804;4.602;2022-07-15T10:01:10;1.70;;;0.90;;
14698;SDS011;7439;50.804;4.602;2022-07-15T10:03:38;2.20;;;1.20;;
14698;SDS011;7439;50.804;4.602;2022-07-15T10:06:07;1.73;;;1.10;;
14698;SDS011;7439;50.804;4.602;2022-07-15T10:08:38;2.77;;;1.10;;
14698;SDS011;7439;50.804;4.602;2022-07-15T10:11:07;1.43;;;1.00;;
14698;SDS011;7439;50.804;4.602;2022-07-15T10:13:45;1.63;;;1.10;;
14698;SDS011;7439;50.804;4.602;2022-07-15T10:19:52;3.17;;;1.20;;
14698;SDS011;7439;50.804;4.602;2022-07-15T10:22:47;2.80;;;1.00;;
14698;SDS011;7439;50.804;4.602;2022-07-15T10:25:25;2.23;;;1.07;;
14698;SDS011;7439;50.804;4.602;2022-07-15T10:28:13;2.47;;;1.10;;
14698;SDS011;7439;50.804;4.602;2022-07-15T10:30:44;1.57;;;0.93;;
14698;SDS011;7439;50.804;4.602;2022-07-15T10:33:12;0.93;;;0.83;;
14698;SDS011;7439;50.804;4.602;2022-07-15T10:35:43;2.17;;;1.20;;
14698;SDS011;7439;50.804;4.602;2022-07-15T10:38:22;2.93;;;1.07;;
14698;SDS011;7439;50.804;4.602;2022-07-15T10:40:58;1.73;;;1.10;;
14698;SDS011;7439;50.804;4.602;2022-07-15T10:46:20;1.43;;;0.90;;
14698;SDS011;7439;50.804;4.602;2022-07-15T10:48:52;2.57;;;1.00;;
14698;SDS011;7439;50.804;4.602;2022-07-15T10:51:41;2.47;;;1.07;;
14698;SDS011;7439;50.804;4.602;2022-07-15T10:54:37;3.70;;;1.10;;
14698;SDS011;7439;50.804;4.602;2022-07-15T10:57:05;1.37;;;1.00;;
14698;SDS011;7439;50.804;4.602;2022-07-15T10:59:35;2.30;;;1.20;;
14698;SDS011;7439;50.804;4.602;2022-07-15T11:02:12;2.00;;;1.03;;
14698;SDS011;7439;50.804;4.602;2022-07-15T11:04:42;3.13;;;1.00;;
14698;SDS011;7439;50.804;4.602;2022-07-15T11:12:55;2.80;;;1.40;;
14698;SDS011;7439;50.804;4.602;2022-07-15T11:15:28;2.40;;;1.10;;
14698;SDS011;7439;50.804;4.602;2022-07-15T11:17:56;1.73;;;1.10;;
14698;SDS011;7439;50.804;4.602;2022-07-15T11:20:25;2.20;;;1.20;;
14698;SDS011;7439;50.804;4.602;2022-07-15T11:22:56;2.47;;;1.00;;
14698;SDS011;7439;50.804;4.602;2022-07-15T11:25:26;3.63;;;1.40;;
14698;SDS011;7439;50.804;4.602;2022-07-15T11:30:39;3.40;;;1.27;;
14698;SDS011;7439;50.804;4.602;2022-07-15T11:33:09;2.70;;;1.17;;
14698;SDS011;7439;50.804;4.602;2022-07-15T11:35:44;1.83;;;1.20;;
14698;SDS011;7439;50.804;4.602;2022-07-15T11:38:12;2.87;;;1.27;;
14698;SDS011;7439;50.804;4.602;2022-07-15T11:40:46;1.63;;;1.30;;
14698;SDS011;7439;50.804;4.602;2022-07-15T11:43:32;4.13;;;1.50;;
14698;SDS011;7439;50.804;4.602;2022-07-15T11:46:18;1.40;;;1.10;;
14698;SDS011;7439;50.804;4.602;2022-07-15T11:48:45;1.80;;;1.20;;
14698;SDS011;7439;50.804;4.602;2022-07-15T11:51:12;2.33;;;1.50;;
14698;SDS011;7439;50.804;4.602;2022-07-15T11:53:39;3.23;;;1.47;;
14698;SDS011;7439;50.804;4.602;2022-07-15T11:56:09;2.30;;;1.50;;
14698;SDS011;7439;50.804;4.602;2022-07-15T11:58:38;3.30;;;1.43;;
14698;SDS011;7439;50.804;4.602;2022-07-15T12:01:09;3.53;;;1.20;;
14698;SDS011;7439;50.804;4.602;2022-07-15T12:03:39;4.17;;;1.37;;
14698;SDS011;7439;50.804;4.602;2022-07-15T12:06:08;1.33;;;1.20;;
14698;SDS011;7439;50.804;4.602;2022-07-15T12:08:39;2.00;;;1.20;;
14698;SDS011;7439;50.804;4.602;2022-07-15T12:11:11;1.43;;;1.17;;
14698;SDS011;7439;50.804;4.602;2022-07-15T12:13:45;3.03;;;1.20;;
14698;SDS011;7439;50.804;4.602;2022-07-15T12:16:17;2.40;;;1.13;;
14698;SDS011;7439;50.804;4.602;2022-07-15T12:18:47;2.90;;;1.13;;
14698;SDS011;7439;50.804;4.602;2022-07-15T12:21:15;3.47;;;1.60;;
14698;SDS011;7439;50.804;4.602;2022-07-15T12:23:56;2.67;;;1.63;;
14698;SDS011;7439;50.804;4.602;2022-07-15T12:26:34;3.57;;;1.80;;
14698;SDS011;7439;50.804;4.602;2022-07-15T12:29:04;1.80;;;1.27;;
14698;SDS011;7439;50.804;4.602;2022-07-15T12:31:34;2.03;;;1.50;;
14698;SDS011;7439;50.804;4.602;2022-07-15T12:34:03;3.20;;;1.60;;
14698;SDS011;7439;50.804;4.602;2022-07-15T12:36:31;2.27;;;1.37;;
14698;SDS011;7439;50.804;4.602;2022-07-15T12:39:02;4.87;;;1.73;;
14698;SDS011;7439;50.804;4.602;2022-07-15T12:41:36;3.20;;;1.57;;
14698;SDS011;7439;50.804;4.602;2022-07-15T12:44:05;1.93;;;1.20;;
14698;SDS011;7439;50.804;4.602;2022-07-15T12:46:49;2.40;;;1.30;;
14698;SDS011;7439;50.804;4.602;2022-07-15T12:52:14;2.00;;;1.40;;
14698;SDS011;7439;50.804;4.602;2022-07-15T12:55:00;2.60;;;1.30;;
14698;SDS011;7439;50.804;4.602;2022-07-15T12:57:49;3.03;;;1.40;;
14698;SDS011;7439;50.804;4.602;2022-07-15T13:00:17;5.23;;;1.50;;
14698;SDS011;7439;50.804;4.602;2022-07-15T13:02:59;2.83;;;1.50;;
14698;SDS011;7439;50.804;4.602;2022-07-15T13:05:30;4.80;;;1.70;;
14698;SDS011;7439;50.804;4.602;2022-07-15T13:07:58;2.23;;;1.63;;
14698;SDS011;7439;50.804;4.602;2022-07-15T13:10:27;4.13;;;1.83;;
14698;SDS011;7439;50.804;4.602;2022-07-15T13:12:57;2.17;;;1.43;;
14698;SDS011;7439;50.804;4.602;2022-07-15T13:15:24;3.07;;;1.57;;
14698;SDS011;7439;50.804;4.602;2022-07-15T13:17:52;2.63;;;1.37;;
14698;SDS011;7439;50.804;4.602;2022-07-15T13:20:19;2.70;;;1.53;;
14698;SDS011;7439;50.804;4.602;2022-07-15T13:22:46;1.70;;;1.53;;
14698;SDS011;7439;50.804;4.602;2022-07-15T13:25:14;2.03;;;1.30;;
14698;SDS011;7439;50.804;4.602;2022-07-15T13:27:41;2.00;;;1.50;;
14698;SDS011;7439;50.804;4.602;2022-07-15T13:30:10;2.17;;;1.27;;
14698;SDS011;7439;50.804;4.602;2022-07-15T13:32:38;2.23;;;1.30;;
14698;SDS011;7439;50.804;4.602;2022-07-15T13:35:05;3.73;;;1.50;;
14698;SDS011;7439;50.804;4.602;2022-07-15T13:37:33;2.77;;;1.27;;
14698;SDS011;7439;50.804;4.602;2022-07-15T13:40:00;1.77;;;1.40;;
14698;SDS011;7439;50.804;4.602;2022-07-15T13:42:28;1.33;;;1.03;;
14698;SDS011;7439;50.804;4.602;2022-07-15T13:44:55;1.23;;;1.13;;
14698;SDS011;7439;50.804;4.602;2022-07-15T13:47:24;1.83;;;1.30;;
14698;SDS011;7439;50.804;4.602;2022-07-15T13:49:51;2.27;;;1.30;;
14698;SDS011;7439;50.804;4.602;2022-07-15T13:52:40;4.10;;;1.33;;
14698;SDS011;7439;50.804;4.602;2022-07-15T13:55:08;2.40;;;1.40;;
14698;SDS011;7439;50.804;4.602;2022-07-15T13:57:36;1.40;;;0.97;;
14698;SDS011;7439;50.804;4.602;2022-07-15T14:00:03;3.27;;;1.10;;
14698;SDS011;7439;50.804;4.602;2022-07-15T14:02:35;4.00;;;1.40;;
14698;SDS011;7439;50.804;4.602;2022-07-15T14:05:02;1.07;;;0.90;;
14698;SDS011;7439;50.804;4.602;2022-07-15T14:07:31;1.27;;;1.00;;
14698;SDS011;7439;50.804;4.602;2022-07-15T14:09:58;3.30;;;1.27;;
14698;SDS011;7439;50.804;4.602;2022-07-15T14:12:25;1.93;;;1.10;;
14698;SDS011;7439;50.804;4.602;2022-07-15T14:14:52;1.10;;;0.93;;
14698;SDS011;7439;50.804;4.602;2022-07-15T14:17:19;2.83;;;1.03;;
14698;SDS011;7439;50.804;4.602;2022-07-15T14:19:48;3.10;;;1.37;;
14698;SDS011;7439;50.804;4.602;2022-07-15T14:22:15;2.70;;;1.43;;
14698;SDS011;7439;50.804;4.602;2022-07-15T14:24:42;2.33;;;1.13;;
14698;SDS011;7439;50.804;4.602;2022-07-15T14:27:09;2.23;;;1.17;;
14698;SDS011;7439;50.804;4.602;2022-07-15T14:29:36;1.00;;;1.00;;
14698;SDS011;7439;50.804;4.602;2022-07-15T14:32:03;4.77;;;1.30;;
14698;SDS011;7439;50.804;4.602;2022-07-15T14:34:31;2.80;;;1.40;;
14698;SDS011;7439;50.804;4.602;2022-07-15T14:36:59;3.97;;;1.40;;
14698;SDS011;7439;50.804;4.602;2022-07-15T14:39:27;2.50;;;1.30;;
14698;SDS011;7439;50.804;4.602;2022-07-15T14:41:53;2.53;;;1.40;;
14698;SDS011;7439;50.804;4.602;2022-07-15T14:44:21;1.40;;;1.30;;
14698;SDS011;7439;50.804;4.602;2022-07-15T14:46:48;2.77;;;1.33;;
14698;SDS011;7439;50.804;4.602;2022-07-15T14:49:15;1.20;;;1.10;;
14698;SDS011;7439;50.804;4.602;2022-07-15T14:51:42;2.67;;;1.27;;
14698;SDS011;7439;50.804;4.602;2022-07-15T14:54:11;1.97;;;1.20;;
14698;SDS011;7439;50.804;4.602;2022-07-15T14:56:38;2.60;;;1.30;;
14698;SDS011;7439;50.804;4.602;2022-07-15T14:59:04;3.40;;;1.70;;
14698;SDS011;7439;50.804;4.602;2022-07-15T15:01:32;5.50;;;1.50;;
14698;SDS011;7439;50.804;4.602;2022-07-15T15:03:58;3.57;;;1.40;;
14698;SDS011;7439;50.804;4.602;2022-07-15T15:06:25;2.57;;;1.40;;
14698;SDS011;7439;50.804;4.602;2022-07-15T15:08:53;1.30;;;1.20;;
14698;SDS011;7439;50.804;4.602;2022-07-15T15:11:21;2.17;;;1.63;;
14698;SDS011;7439;50.804;4.602;2022-07-15T15:13:48;1.97;;;1.40;;
14698;SDS011;7439;50.804;4.602;2022-07-15T15:16:15;3.37;;;1.40;;
14698;SDS011;7439;50.804;4.602;2022-07-15T15:18:42;2.20;;;1.50;;
14698;SDS011;7439;50.804;4.602;2022-07-15T15:21:09;3.87;;;1.60;;
14698;SDS011;7439;50.804;4.602;2022-07-15T15:23:36;2.80;;;1.27;;
14698;SDS011;7439;50.804;4.602;2022-07-15T15:26:03;5.57;;;1.50;;
14698;SDS011;7439;50.804;4.602;2022-07-15T15:28:52;6.07;;;1.67;;